createdAt,value
2018-11-04T00:00:19.899Z,23.53
2018-11-04T00:02:49.345Z,24.03
2018-11-04T00:05:18.521Z,24.03
2018-11-04T00:07:48.759Z,25.00
2018-11-04T00:10:17.711Z,24.33
2018-11-04T00:12:46.614Z,22.73
2018-11-04T00:15:15.511Z,22.83
2018-11-04T00:17:44.381Z,23.90
2018-11-04T00:20:14.417Z,22.93
2018-11-04T00:22:43.300Z,23.63
2018-11-04T00:25:13.350Z,22.53
2018-11-04T00:27:42.280Z,23.57
2018-11-04T00:30:13.812Z,22.50
2018-11-04T00:32:43.241Z,22.77
2018-11-04T00:35:12.344Z,22.00
2018-11-04T00:37:41.257Z,22.17
2018-11-04T00:40:10.196Z,23.13
2018-11-04T00:42:39.073Z,23.03
2018-11-04T00:45:09.425Z,22.67
2018-11-04T00:47:39.038Z,21.93
2018-11-04T00:50:13.665Z,23.13
2018-11-04T00:52:43.267Z,22.90
2018-11-04T00:55:12.575Z,23.73
2018-11-04T00:57:41.644Z,22.50
2018-11-04T01:00:18.370Z,24.00
2018-11-04T01:02:48.367Z,22.73
2018-11-04T01:05:18.041Z,22.83
2018-11-04T01:07:46.979Z,23.57
2018-11-04T01:10:15.884Z,22.97
2018-11-04T01:12:45.408Z,21.67
2018-11-04T01:15:15.220Z,23.87
2018-11-04T01:17:44.952Z,24.23
2018-11-04T01:20:17.739Z,22.33
2018-11-04T01:22:46.723Z,22.77
2018-11-04T01:25:15.628Z,22.60
2018-11-04T01:27:44.578Z,22.53
2018-11-04T01:30:14.955Z,21.53
2018-11-04T01:32:44.391Z,20.00
2018-11-04T01:35:13.256Z,19.87
2018-11-04T01:37:42.160Z,20.33
2018-11-04T01:40:11.244Z,20.20
2018-11-04T01:42:40.247Z,20.13
2018-11-04T01:45:10.582Z,19.83
2018-11-04T01:47:39.659Z,18.37
2018-11-04T01:50:12.687Z,17.77
2018-11-04T01:52:41.551Z,17.37
2018-11-04T01:55:11.322Z,17.20
2018-11-04T01:57:40.261Z,18.27
2018-11-04T02:00:13.284Z,17.03
2018-11-04T02:02:42.946Z,17.30
2018-11-04T02:05:12.627Z,17.20
2018-11-04T02:07:41.620Z,16.00
2018-11-04T02:10:12.382Z,16.77
2018-11-04T02:12:41.304Z,15.93
2018-11-04T02:15:11.845Z,16.80
2018-11-04T02:17:40.747Z,16.57
2018-11-04T02:20:11.231Z,16.80
2018-11-04T02:22:40.465Z,15.87
2018-11-04T02:25:10.672Z,15.17
2018-11-04T02:27:39.709Z,15.63
2018-11-04T02:30:11.559Z,15.17
2018-11-04T02:32:40.644Z,15.30
2018-11-04T02:35:09.642Z,15.37
2018-11-04T02:37:38.800Z,15.07
2018-11-04T02:40:07.678Z,14.97
2018-11-04T02:42:36.837Z,14.97
2018-11-04T02:45:06.481Z,13.83
2018-11-04T02:47:35.515Z,14.43
2018-11-04T02:50:04.444Z,14.40
2018-11-04T02:52:33.341Z,14.73
2018-11-04T02:55:02.276Z,15.00
2018-11-04T02:57:31.147Z,13.07
2018-11-04T03:00:00.038Z,13.47
2018-11-04T03:02:28.957Z,13.20
2018-11-04T03:04:57.821Z,13.73
2018-11-04T03:07:26.720Z,13.43
2018-11-04T03:09:55.602Z,13.33
2018-11-04T03:12:24.494Z,13.93
2018-11-04T03:14:53.375Z,12.87
2018-11-04T03:17:22.309Z,13.43
2018-11-04T03:19:51.167Z,13.13
2018-11-04T03:22:20.055Z,13.23
2018-11-04T03:24:49.017Z,12.50
2018-11-04T03:27:17.923Z,12.97
2018-11-04T03:29:46.829Z,13.07
2018-11-04T03:32:15.744Z,11.90
2018-11-04T03:34:44.662Z,12.30
2018-11-04T03:37:13.502Z,13.00
2018-11-04T03:39:42.396Z,11.67
2018-11-04T03:42:11.324Z,12.37
2018-11-04T03:44:40.287Z,11.93
2018-11-04T03:47:09.204Z,12.50
2018-11-04T03:49:38.117Z,12.30
2018-11-04T03:52:07.513Z,11.67
2018-11-04T03:54:36.387Z,12.40
2018-11-04T03:57:05.503Z,12.67
2018-11-04T03:59:34.457Z,11.73
2018-11-04T04:02:03.337Z,10.90
2018-11-04T04:04:32.184Z,13.00
2018-11-04T04:07:01.071Z,11.87
2018-11-04T04:09:29.965Z,11.43
2018-11-04T04:11:58.876Z,11.17
2018-11-04T04:14:27.781Z,14.50
2018-11-04T04:16:56.663Z,13.13
2018-11-04T04:19:25.514Z,11.33
2018-11-04T04:21:54.428Z,12.37
2018-11-04T04:24:23.296Z,12.63
2018-11-04T04:26:52.152Z,11.73
2018-11-04T04:29:21.061Z,11.77
2018-11-04T04:31:49.938Z,12.10
2018-11-04T04:34:18.824Z,11.63
2018-11-04T04:36:47.736Z,12.17
2018-11-04T04:39:17.761Z,12.87
2018-11-04T04:41:46.716Z,12.47
2018-11-04T04:44:15.601Z,13.10
2018-11-04T04:46:44.554Z,12.50
2018-11-04T04:49:14.022Z,12.43
2018-11-04T04:51:42.955Z,12.47
2018-11-04T04:54:11.875Z,10.97
2018-11-04T04:56:40.776Z,12.87
2018-11-04T04:59:09.784Z,11.50
2018-11-04T05:01:38.685Z,11.43
2018-11-04T05:04:07.588Z,11.80
2018-11-04T05:06:36.439Z,11.73
2018-11-04T05:09:06.742Z,12.37
2018-11-04T05:11:35.642Z,11.70
2018-11-04T05:14:04.555Z,12.73
2018-11-04T05:16:33.441Z,12.57
2018-11-04T05:19:02.343Z,12.27
2018-11-04T05:21:31.188Z,12.33
2018-11-04T05:24:00.064Z,11.77
2018-11-04T05:26:28.959Z,13.20
2018-11-04T05:28:57.820Z,13.40
2018-11-04T05:31:26.724Z,12.43
2018-11-04T05:33:55.613Z,13.60
2018-11-04T05:36:24.507Z,12.47
2018-11-04T05:38:53.402Z,21.23
2018-11-04T05:41:22.243Z,15.90
2018-11-04T05:43:52.001Z,13.10
2018-11-04T05:46:20.876Z,21.73
2018-11-04T05:48:49.797Z,12.10
2018-11-04T05:51:18.721Z,12.20
2018-11-04T05:53:47.643Z,12.20
2018-11-04T05:56:16.533Z,11.53
2018-11-04T05:58:45.397Z,11.63
2018-11-04T06:01:14.291Z,11.77
2018-11-04T06:03:43.277Z,11.47
2018-11-04T06:06:12.211Z,11.40
2018-11-04T06:08:41.080Z,12.00
2018-11-04T06:11:10.021Z,12.43
2018-11-04T06:13:38.944Z,11.93
2018-11-04T06:16:08.298Z,11.67
2018-11-04T06:18:37.174Z,12.30
2018-11-04T06:21:06.240Z,13.67
2018-11-04T06:23:35.126Z,13.17
2018-11-04T06:26:04.024Z,12.53
2018-11-04T06:28:32.994Z,12.07
2018-11-04T06:31:01.904Z,12.67
2018-11-04T06:33:30.829Z,12.57
2018-11-04T06:35:59.679Z,12.20
2018-11-04T06:38:28.567Z,12.90
2018-11-04T06:40:57.500Z,12.73
2018-11-04T06:43:26.456Z,12.60
2018-11-04T06:45:55.373Z,12.30
2018-11-04T06:48:24.284Z,12.17
2018-11-04T06:50:53.234Z,12.40
2018-11-04T06:53:22.113Z,11.90
2018-11-04T06:55:51.066Z,12.47
2018-11-04T06:58:19.930Z,11.57
2018-11-04T07:00:48.806Z,12.90
2018-11-04T07:03:17.703Z,11.83
2018-11-04T07:05:46.607Z,12.00
2018-11-04T07:08:15.481Z,12.00
2018-11-04T07:10:44.365Z,12.00
2018-11-04T07:13:13.247Z,12.20
2018-11-04T07:15:42.115Z,12.03
2018-11-04T07:18:11.048Z,12.43
2018-11-04T07:20:39.982Z,12.47
2018-11-04T07:23:08.848Z,12.60
2018-11-04T07:25:37.829Z,12.37
2018-11-04T07:28:06.768Z,11.80
2018-11-04T07:30:35.640Z,13.03
2018-11-04T07:33:04.539Z,13.77
2018-11-04T07:35:33.473Z,12.80
2018-11-04T07:38:02.381Z,12.53
2018-11-04T07:40:31.304Z,11.93
2018-11-04T07:43:00.212Z,12.13
2018-11-04T07:45:29.087Z,12.63
2018-11-04T07:47:57.973Z,12.70
2018-11-04T07:50:26.900Z,11.73
2018-11-04T07:52:55.806Z,12.47
2018-11-04T07:55:24.715Z,13.07
2018-11-04T07:57:53.584Z,12.00
2018-11-04T08:00:22.478Z,13.27
2018-11-04T08:02:51.459Z,13.50
2018-11-04T08:05:20.364Z,13.30
2018-11-04T08:07:49.235Z,13.63
2018-11-04T08:10:18.147Z,12.97
2018-11-04T08:12:47.053Z,12.80
2018-11-04T08:15:15.983Z,13.33
2018-11-04T08:17:44.880Z,13.43
2018-11-04T08:20:13.797Z,14.50
2018-11-04T08:22:42.669Z,13.97
2018-11-04T08:25:11.612Z,12.50
2018-11-04T08:27:40.557Z,13.60
2018-11-04T08:30:10.130Z,13.53
2018-11-04T08:32:39.014Z,14.13
2018-11-04T08:35:07.962Z,13.00
2018-11-04T08:37:36.842Z,13.50
2018-11-04T08:40:06.477Z,13.40
2018-11-04T08:42:35.316Z,14.17
2018-11-04T08:45:04.486Z,13.10
2018-11-04T08:47:33.373Z,12.10
2018-11-04T08:50:02.264Z,13.63
2018-11-04T08:52:31.252Z,13.73
2018-11-04T08:55:00.303Z,13.97
2018-11-04T08:57:29.205Z,14.17
2018-11-04T08:59:58.165Z,13.50
2018-11-04T09:02:27.034Z,14.40
2018-11-04T09:04:55.939Z,13.70
2018-11-04T09:07:24.878Z,13.73
2018-11-04T09:09:53.741Z,12.93
2018-11-04T09:12:22.671Z,13.53
2018-11-04T09:14:51.601Z,13.43
2018-11-04T09:17:20.471Z,13.13
2018-11-04T09:19:49.425Z,13.13
2018-11-04T09:22:18.380Z,13.83
2018-11-04T09:24:47.207Z,12.87
2018-11-04T09:27:16.151Z,14.00
2018-11-04T09:29:45.079Z,13.80
2018-11-04T09:32:13.987Z,13.77
2018-11-04T09:34:43.026Z,13.40
2018-11-04T09:37:11.892Z,13.83
2018-11-04T09:39:40.749Z,13.67
2018-11-04T09:42:09.671Z,18.60
2018-11-04T09:44:38.528Z,30.90
2018-11-04T09:47:07.456Z,139.70
2018-11-04T09:49:36.391Z,39.37
2018-11-04T09:52:05.419Z,78.70
2018-11-04T09:54:34.323Z,46.27
2018-11-04T09:57:03.302Z,32.73
2018-11-04T09:59:32.178Z,24.13
2018-11-04T10:02:01.168Z,20.27
2018-11-04T10:04:30.087Z,25.13
2018-11-04T10:06:58.992Z,31.17
2018-11-04T10:09:27.876Z,20.73
2018-11-04T10:11:56.861Z,23.03
2018-11-04T10:14:25.728Z,24.33
2018-11-04T10:16:54.598Z,23.43
2018-11-04T10:19:23.827Z,65.13
2018-11-04T10:21:52.443Z,31.80
2018-11-04T10:24:21.373Z,21.43
2018-11-04T10:26:50.573Z,27.40
2018-11-04T10:29:19.435Z,37.93
2018-11-04T10:31:48.356Z,31.33
2018-11-04T10:34:17.269Z,22.47
2018-11-04T10:36:46.189Z,22.50
2018-11-04T10:39:15.137Z,19.93
2018-11-04T10:41:44.526Z,24.20
2018-11-04T10:44:13.400Z,30.77
2018-11-04T10:46:42.293Z,22.43
2018-11-04T10:49:11.254Z,38.50
2018-11-04T10:51:40.152Z,16.63
2018-11-04T10:54:09.012Z,17.00
2018-11-04T10:56:37.931Z,16.03
2018-11-04T10:59:06.897Z,17.40
2018-11-04T11:01:35.845Z,19.10
2018-11-04T11:04:04.732Z,16.07
2018-11-04T11:06:33.608Z,20.57
2018-11-04T11:09:02.612Z,16.50
2018-11-04T11:11:31.516Z,18.77
2018-11-04T11:14:00.435Z,34.17
2018-11-04T11:16:29.348Z,24.80
2018-11-04T11:18:58.257Z,17.10
2018-11-04T11:21:27.163Z,19.90
2018-11-04T11:23:56.544Z,20.70
2018-11-04T11:26:25.540Z,20.20
2018-11-04T11:28:54.426Z,17.47
2018-11-04T11:31:23.320Z,17.40
2018-11-04T11:33:52.226Z,17.53
2018-11-04T11:36:21.164Z,18.20
2018-11-04T11:38:50.102Z,17.33
2018-11-04T11:41:19.051Z,18.13
2018-11-04T11:43:47.945Z,20.87
2018-11-04T11:46:16.882Z,19.23
2018-11-04T11:48:45.795Z,19.93
2018-11-04T11:51:14.704Z,22.10
2018-11-04T11:53:43.615Z,20.67
2018-11-04T11:56:12.505Z,19.93
2018-11-04T11:58:41.443Z,17.83
2018-11-04T12:01:10.327Z,21.33
2018-11-04T12:03:39.198Z,22.13
2018-11-04T12:06:08.147Z,18.63
2018-11-04T12:08:37.036Z,18.80
2018-11-04T12:11:06.319Z,17.77
2018-11-04T12:13:35.302Z,18.07
2018-11-04T12:16:04.223Z,25.80
2018-11-04T12:18:33.120Z,18.73
2018-11-04T12:21:02.024Z,18.63
2018-11-04T12:23:30.977Z,17.70
2018-11-04T12:25:59.899Z,19.10
2018-11-04T12:28:28.938Z,18.30
2018-11-04T12:30:57.825Z,17.90
2018-11-04T12:33:26.772Z,17.73
2018-11-04T12:35:55.652Z,19.67
2018-11-04T12:38:24.564Z,20.57
2018-11-04T12:40:53.533Z,18.70
2018-11-04T12:43:22.422Z,18.60
2018-11-04T12:45:51.348Z,18.57
2018-11-04T12:48:20.251Z,20.27
2018-11-04T12:50:49.194Z,17.60
2018-11-04T12:53:18.084Z,18.67
2018-11-04T12:55:46.943Z,18.63
2018-11-04T12:58:15.856Z,17.80
2018-11-04T13:00:44.737Z,20.13
2018-11-04T13:03:13.621Z,18.10
2018-11-04T13:05:42.504Z,18.53
2018-11-04T13:08:11.414Z,18.07
2018-11-04T13:10:40.368Z,18.87
2018-11-04T13:13:09.251Z,20.13
2018-11-04T13:15:38.137Z,19.53
2018-11-04T13:18:07.282Z,17.87
2018-11-04T13:20:36.185Z,18.10
2018-11-04T13:23:05.603Z,19.27
2018-11-04T13:25:34.565Z,18.53
2018-11-04T13:28:04.168Z,18.53
2018-11-04T13:30:33.115Z,19.53
2018-11-04T13:33:02.042Z,17.97
2018-11-04T13:35:31.039Z,18.40
2018-11-04T13:37:59.975Z,17.13
2018-11-04T13:40:28.872Z,17.70
2018-11-04T13:42:57.840Z,16.87
2018-11-04T13:45:26.779Z,16.27
2018-11-04T13:47:55.705Z,16.97
2018-11-04T13:50:24.635Z,17.60
2018-11-04T13:52:53.515Z,17.50
2018-11-04T13:55:23.148Z,17.77
2018-11-04T13:57:52.072Z,18.07
2018-11-04T14:00:21.547Z,17.47
2018-11-04T14:02:50.452Z,19.10
2018-11-04T14:05:19.366Z,19.27
2018-11-04T14:07:48.317Z,20.03
2018-11-04T14:10:17.368Z,18.03
2018-11-04T14:12:46.569Z,18.50
2018-11-04T14:15:15.763Z,17.53
2018-11-04T14:17:45.461Z,18.30
2018-11-04T14:20:14.382Z,19.07
2018-11-04T14:22:43.727Z,18.63
2018-11-04T14:25:13.125Z,18.70
2018-11-04T14:27:42.062Z,21.20
2018-11-04T14:30:12.985Z,18.77
2018-11-04T14:32:41.898Z,19.30
2018-11-04T14:35:11.456Z,25.97
2018-11-04T14:37:41.632Z,19.60
2018-11-04T14:40:12.841Z,19.30
2018-11-04T14:42:42.662Z,19.67
2018-11-04T14:45:11.606Z,32.45
2018-11-04T14:47:40.666Z,24.93
2018-11-04T14:50:12.504Z,19.57
2018-11-04T14:52:41.481Z,18.73
2018-11-04T14:55:10.411Z,26.27
2018-11-04T14:57:39.440Z,19.83
2018-11-04T15:00:10.940Z,25.10
2018-11-04T15:02:50.892Z,26.87
2018-11-04T15:05:27.351Z,33.13
2018-11-04T15:08:06.283Z,38.63
2018-11-04T15:10:44.722Z,21.57
2018-11-04T15:13:20.614Z,28.13
2018-11-04T15:15:57.676Z,23.83
2018-11-04T15:18:34.097Z,24.73
2018-11-04T15:21:13.081Z,22.47
2018-11-04T15:23:42.069Z,28.37
2018-11-04T15:26:11.135Z,22.77
2018-11-04T15:28:40.147Z,39.20
2018-11-04T15:31:09.135Z,31.57
2018-11-04T15:33:38.101Z,27.97
2018-11-04T15:36:08.594Z,23.73
2018-11-04T15:38:37.611Z,26.33
2018-11-04T15:41:06.992Z,26.20
2018-11-04T15:43:35.942Z,28.90
2018-11-04T15:46:04.899Z,32.03
2018-11-04T15:48:33.784Z,24.60
2018-11-04T15:51:02.699Z,27.63
2018-11-04T15:53:31.697Z,24.77
2018-11-04T15:56:00.627Z,25.93
2018-11-04T15:58:29.633Z,31.87
2018-11-04T16:00:58.560Z,39.10
2018-11-04T16:03:27.447Z,28.27
2018-11-04T16:05:56.412Z,26.40
2018-11-04T16:08:27.028Z,25.17
2018-11-04T16:10:55.912Z,27.63
2018-11-04T16:13:24.788Z,27.20
2018-11-04T16:15:53.743Z,36.00
2018-11-04T16:18:22.843Z,38.17
2018-11-04T16:20:51.577Z,31.53
2018-11-04T16:23:20.495Z,29.80
2018-11-04T16:25:49.381Z,30.23
2018-11-04T16:28:18.299Z,28.20
2018-11-04T16:30:48.329Z,28.03
2018-11-04T16:33:18.187Z,32.17
2018-11-04T16:35:47.625Z,29.43
2018-11-04T16:38:16.516Z,30.03
2018-11-04T16:40:45.477Z,29.73
2018-11-04T16:43:14.418Z,30.83
2018-11-04T16:45:43.407Z,32.47
2018-11-04T16:48:12.453Z,31.60
2018-11-04T16:50:41.332Z,31.73
2018-11-04T16:53:10.313Z,33.10
2018-11-04T16:55:39.315Z,32.00
2018-11-04T16:58:08.265Z,36.73
2018-11-04T17:00:37.775Z,31.93
2018-11-04T17:03:06.691Z,32.60
2018-11-04T17:05:35.773Z,37.53
2018-11-04T17:08:04.532Z,32.57
2018-11-04T17:10:33.440Z,31.67
2018-11-04T17:13:02.580Z,34.23
2018-11-04T17:15:31.532Z,32.17
2018-11-04T17:18:00.502Z,33.07
2018-11-04T17:20:29.439Z,31.93
2018-11-04T17:22:58.379Z,36.00
2018-11-04T17:25:27.288Z,33.47
2018-11-04T17:27:56.172Z,33.53
2018-11-04T17:30:25.113Z,33.43
2018-11-04T17:32:54.031Z,37.73
2018-11-04T17:35:22.937Z,35.10
2018-11-04T17:37:51.881Z,33.83
2018-11-04T17:40:20.807Z,34.53
2018-11-04T17:42:50.068Z,36.23
2018-11-04T17:45:19.049Z,34.90
2018-11-04T17:47:48.468Z,35.17
2018-11-04T17:50:18.646Z,35.70
2018-11-04T17:52:47.644Z,38.30
2018-11-04T17:55:16.768Z,37.00
2018-11-04T17:57:45.935Z,36.43
2018-11-04T18:00:16.260Z,35.77
2018-11-04T18:02:45.197Z,36.33
2018-11-04T18:05:14.508Z,35.47
2018-11-04T18:07:44.323Z,35.30
2018-11-04T18:10:14.451Z,33.87
2018-11-04T18:12:43.641Z,35.70
2018-11-04T18:15:13.628Z,34.00
2018-11-04T18:17:43.365Z,35.20
2018-11-04T18:20:12.982Z,36.53
2018-11-04T18:22:41.927Z,38.77
2018-11-04T18:25:12.385Z,35.20
2018-11-04T18:27:41.491Z,32.63
2018-11-04T18:30:12.687Z,37.53
2018-11-04T18:32:41.867Z,36.00
2018-11-04T18:35:11.526Z,48.20
2018-11-04T18:37:40.584Z,39.87
2018-11-04T18:40:12.125Z,34.00
2018-11-04T18:42:41.068Z,32.90
2018-11-04T18:45:11.615Z,33.53
2018-11-04T18:47:40.580Z,32.43
2018-11-04T18:50:10.659Z,32.43
2018-11-04T18:52:39.802Z,31.67
2018-11-04T18:55:09.883Z,32.80
2018-11-04T18:57:38.976Z,33.67
2018-11-04T19:00:10.142Z,31.87
2018-11-04T19:02:39.072Z,32.13
2018-11-04T19:05:08.565Z,30.30
2018-11-04T19:07:37.732Z,30.77
2018-11-04T19:10:08.533Z,28.57
2018-11-04T19:12:37.533Z,29.77
2018-11-04T19:15:06.713Z,31.13
2018-11-04T19:17:36.009Z,30.33
2018-11-04T19:20:05.943Z,31.03
2018-11-04T19:22:34.963Z,29.30
2018-11-04T19:25:03.903Z,30.23
2018-11-04T19:27:32.818Z,28.57
2018-11-04T19:30:01.785Z,29.33
2018-11-04T19:32:30.705Z,29.33
2018-11-04T19:34:59.684Z,29.43
2018-11-04T19:37:28.731Z,30.40
2018-11-04T19:39:58.388Z,27.97
2018-11-04T19:42:27.365Z,27.07
2018-11-04T19:44:56.198Z,26.43
2018-11-04T19:47:25.147Z,26.40
2018-11-04T19:49:54.051Z,29.97
2018-11-04T19:52:22.981Z,28.80
2018-11-04T19:54:51.968Z,27.30
2018-11-04T19:57:25.128Z,29.67
2018-11-04T19:59:54.229Z,28.10
2018-11-04T20:02:23.145Z,30.00
2018-11-04T20:04:52.768Z,27.90
2018-11-04T20:07:21.749Z,27.73
2018-11-04T20:09:50.668Z,27.77
2018-11-04T20:12:24.841Z,28.17
2018-11-04T20:14:54.062Z,28.73
2018-11-04T20:17:22.942Z,28.87
2018-11-04T20:19:57.148Z,25.80
2018-11-04T20:22:25.989Z,27.37
2018-11-04T20:25:00.109Z,28.67
2018-11-04T20:27:29.174Z,29.63
2018-11-04T20:29:58.068Z,25.27
2018-11-04T20:32:32.113Z,25.77
2018-11-04T20:35:01.062Z,24.03
2018-11-04T20:37:29.939Z,26.77
2018-11-04T20:40:04.085Z,26.00
2018-11-04T20:42:33.010Z,25.53
2018-11-04T20:45:02.074Z,28.03
2018-11-04T20:47:36.065Z,26.30
2018-11-04T20:50:10.784Z,25.00
2018-11-04T20:52:39.692Z,26.00
2018-11-04T20:55:08.737Z,26.00
2018-11-04T20:57:39.624Z,25.63
2018-11-04T21:00:11.091Z,25.73
2018-11-04T21:02:40.266Z,26.00
2018-11-04T21:05:09.049Z,26.10
2018-11-04T21:07:37.943Z,25.40
2018-11-04T21:10:08.689Z,27.27
2018-11-04T21:12:37.588Z,25.53
2018-11-04T21:15:06.834Z,25.67
2018-11-04T21:17:35.767Z,28.10
2018-11-04T21:20:04.843Z,28.93
2018-11-04T21:22:33.962Z,29.63
2018-11-04T21:25:02.981Z,27.40
2018-11-04T21:27:31.874Z,31.57
2018-11-04T21:30:00.859Z,30.63
2018-11-04T21:32:29.822Z,29.87
2018-11-04T21:34:58.754Z,29.07
2018-11-04T21:37:27.659Z,29.10
2018-11-04T21:39:56.625Z,28.77
2018-11-04T21:42:25.593Z,29.93
2018-11-04T21:44:54.431Z,30.57
2018-11-04T21:47:23.338Z,31.93
2018-11-04T21:49:52.260Z,31.23
2018-11-04T21:52:21.123Z,32.37
2018-11-04T21:54:50.032Z,32.77
2018-11-04T21:57:18.983Z,31.20
2018-11-04T21:59:47.852Z,33.73
2018-11-04T22:02:16.734Z,32.40
2018-11-04T22:04:45.779Z,32.27
2018-11-04T22:07:14.604Z,33.53
2018-11-04T22:09:43.532Z,33.20
2018-11-04T22:12:12.611Z,31.27
2018-11-04T22:14:41.525Z,34.50
2018-11-04T22:17:10.442Z,33.23
2018-11-04T22:19:39.436Z,33.57
2018-11-04T22:22:08.394Z,33.60
2018-11-04T22:24:37.260Z,35.03
2018-11-04T22:27:06.305Z,37.33
2018-11-04T22:29:35.198Z,35.47
2018-11-04T22:32:04.051Z,35.77
2018-11-04T22:34:32.946Z,33.60
2018-11-04T22:37:01.849Z,36.17
2018-11-04T22:39:30.740Z,35.80
2018-11-04T22:41:59.638Z,35.93
2018-11-04T22:44:28.524Z,33.67
2018-11-04T22:46:57.407Z,32.30
2018-11-04T22:49:26.704Z,33.10
2018-11-04T22:51:55.705Z,30.43
2018-11-04T22:54:24.577Z,29.03
2018-11-04T22:56:53.475Z,28.17
2018-11-04T22:59:22.352Z,25.23
2018-11-04T23:01:51.234Z,25.63
2018-11-04T23:04:27.313Z,25.93
2018-11-04T23:06:56.213Z,24.67
2018-11-04T23:09:25.107Z,25.13
2018-11-04T23:11:54.049Z,24.90
2018-11-04T23:14:22.959Z,25.27
2018-11-04T23:16:51.852Z,25.97
2018-11-04T23:19:20.811Z,25.10
2018-11-04T23:21:49.768Z,25.17
2018-11-04T23:24:18.770Z,25.53
2018-11-04T23:26:47.747Z,25.17
2018-11-04T23:29:16.717Z,25.73
2018-11-04T23:31:45.640Z,25.77
2018-11-04T23:34:14.528Z,26.23
2018-11-04T23:36:43.490Z,25.17
2018-11-04T23:39:12.364Z,25.77
2018-11-04T23:41:41.544Z,25.63
2018-11-04T23:44:10.581Z,25.40
2018-11-04T23:46:39.479Z,24.40
2018-11-04T23:49:08.335Z,24.03
2018-11-04T23:51:37.324Z,24.43
2018-11-04T23:54:06.709Z,23.73
2018-11-04T23:56:35.651Z,24.47
2018-11-04T23:59:04.555Z,24.90
